createdAt,value
2017-09-07T00:00:45.123Z,80.7
2017-09-07T00:01:45.846Z,81.0
2017-09-07T00:02:46.609Z,81.0
2017-09-07T00:03:47.356Z,81.4
2017-09-07T00:04:48.098Z,81.1
2017-09-07T00:05:48.834Z,80.7
2017-09-07T00:06:49.607Z,80.9
2017-09-07T00:07:50.382Z,80.8
2017-09-07T00:08:51.120Z,81.5
2017-09-07T00:09:51.864Z,82.4
2017-09-07T00:10:52.715Z,81.9
2017-09-07T00:11:53.435Z,82.5
2017-09-07T00:12:54.225Z,82.4
2017-09-07T00:13:54.981Z,82.7
2017-09-07T00:14:55.768Z,82.5
2017-09-07T00:15:56.531Z,81.9
2017-09-07T00:16:57.370Z,82.4
2017-09-07T00:17:58.135Z,82.6
2017-09-07T00:18:58.800Z,82.5
2017-09-07T00:19:59.588Z,82.6
2017-09-07T00:21:00.297Z,82.8
2017-09-07T00:22:01.107Z,82.4
2017-09-07T00:23:01.874Z,80.2
2017-09-07T00:24:02.610Z,80.9
2017-09-07T00:25:03.327Z,82.8
2017-09-07T00:26:04.130Z,83.4
2017-09-07T00:27:04.902Z,83.5
2017-09-07T00:28:05.992Z,83.5
2017-09-07T00:29:06.662Z,83.0
2017-09-07T00:30:07.686Z,83.6
2017-09-07T00:31:08.515Z,83.4
2017-09-07T00:32:09.311Z,83.5
2017-09-07T00:33:10.012Z,83.9
2017-09-07T00:34:10.730Z,83.6
2017-09-07T00:35:11.518Z,84.2
2017-09-07T00:36:12.242Z,84.1
2017-09-07T00:37:12.958Z,83.5
2017-09-07T00:38:13.775Z,83.3
2017-09-07T00:39:14.475Z,83.9
2017-09-07T00:40:15.361Z,83.5
2017-09-07T00:41:16.112Z,83.4
2017-09-07T00:42:16.879Z,83.7
2017-09-07T00:43:17.609Z,83.2
2017-09-07T00:44:18.310Z,82.9
2017-09-07T00:45:19.162Z,83.7
2017-09-07T00:46:19.899Z,84.0
2017-09-07T00:47:20.691Z,83.8
2017-09-07T00:48:21.395Z,83.7
2017-09-07T00:49:22.152Z,83.4
2017-09-07T00:50:22.965Z,83.6
2017-09-07T00:51:23.725Z,84.2
2017-09-07T00:52:24.756Z,84.3
2017-09-07T00:53:25.432Z,83.2
2017-09-07T00:54:26.398Z,81.7
2017-09-07T00:55:27.124Z,82.6
2017-09-07T00:56:27.925Z,83.1
2017-09-07T00:57:28.751Z,83.0
2017-09-07T00:58:29.531Z,83.4
2017-09-07T00:59:30.314Z,83.4
2017-09-07T01:00:31.196Z,83.0
2017-09-07T01:01:32.186Z,82.9
2017-09-07T01:02:32.958Z,82.8
2017-09-07T01:03:33.709Z,83.0
2017-09-07T01:04:34.498Z,83.2
2017-09-07T01:05:35.272Z,83.0
2017-09-07T01:06:36.092Z,83.3
2017-09-07T01:07:36.946Z,83.1
2017-09-07T01:08:37.723Z,82.9
2017-09-07T01:09:38.460Z,83.1
2017-09-07T01:10:39.205Z,83.1
2017-09-07T01:11:39.964Z,83.1
2017-09-07T01:12:41.773Z,82.8
2017-09-07T01:13:42.598Z,83.0
2017-09-07T01:14:43.309Z,83.3
2017-09-07T01:15:44.161Z,83.3
2017-09-07T01:16:44.893Z,82.8
2017-09-07T01:17:45.703Z,83.1
2017-09-07T01:18:46.435Z,82.9
2017-09-07T01:19:47.341Z,83.2
2017-09-07T01:22:03.630Z,82.8
2017-09-07T01:23:04.472Z,83.2
2017-09-07T01:24:05.437Z,83.1
2017-09-07T01:25:06.324Z,81.7
2017-09-07T01:26:07.260Z,81.8
2017-09-07T01:27:08.108Z,81.8
2017-09-07T01:28:08.804Z,81.7
2017-09-07T01:29:09.715Z,81.7
2017-09-07T01:30:10.550Z,81.7
2017-09-07T01:31:11.409Z,82.5
2017-09-07T01:32:12.146Z,81.7
2017-09-07T01:33:12.876Z,81.5
2017-09-07T01:34:13.738Z,82.0
2017-09-07T01:35:14.474Z,82.5
2017-09-07T01:36:15.144Z,81.2
2017-09-07T01:37:16.037Z,81.7
2017-09-07T01:38:16.914Z,81.7
2017-09-07T01:39:17.583Z,81.9
2017-09-07T01:40:18.442Z,81.7
2017-09-07T01:41:19.106Z,81.9
2017-09-07T01:42:19.912Z,81.4
2017-09-07T01:43:20.621Z,81.9
2017-09-07T01:44:21.448Z,81.8
2017-09-07T01:45:22.342Z,82.5
2017-09-07T01:46:23.067Z,83.1
2017-09-07T01:47:23.885Z,83.1
2017-09-07T01:48:24.635Z,82.7
2017-09-07T01:49:25.379Z,82.7
2017-09-07T01:50:26.181Z,82.7
2017-09-07T01:51:26.982Z,82.4
2017-09-07T01:52:27.738Z,82.2
2017-09-07T01:53:28.620Z,82.5
2017-09-07T01:54:29.423Z,82.2
2017-09-07T01:55:30.183Z,82.6
2017-09-07T01:56:30.911Z,82.5
2017-09-07T01:57:31.809Z,82.5
2017-09-07T01:58:32.502Z,82.7
2017-09-07T01:59:33.430Z,81.9
2017-09-07T02:00:34.310Z,82.4
2017-09-07T02:01:34.977Z,82.6
2017-09-07T02:02:35.750Z,82.4
2017-09-07T02:03:36.499Z,82.0
2017-09-07T02:04:37.283Z,82.2
2017-09-07T02:05:38.018Z,82.1
2017-09-07T02:06:39.051Z,82.4
2017-09-07T02:07:39.988Z,82.5
2017-09-07T02:08:40.702Z,82.5
2017-09-07T02:09:41.474Z,82.8
2017-09-07T02:10:42.297Z,82.9
2017-09-07T02:11:43.043Z,82.8
2017-09-07T02:12:43.797Z,82.5
2017-09-07T02:13:44.584Z,82.5
2017-09-07T02:14:45.471Z,80.8
2017-09-07T02:15:46.263Z,80.8
2017-09-07T02:16:46.986Z,82.9
2017-09-07T02:17:47.772Z,82.7
2017-09-07T02:18:48.554Z,82.8
2017-09-07T02:19:49.305Z,83.4
2017-09-07T02:20:50.069Z,84.1
2017-09-07T02:21:50.791Z,83.9
2017-09-07T02:22:51.508Z,84.1
2017-09-07T02:23:52.281Z,83.7
2017-09-07T02:24:53.010Z,83.5
2017-09-07T02:25:53.829Z,83.8
2017-09-07T02:26:54.600Z,83.4
2017-09-07T02:27:55.257Z,84.0
2017-09-07T02:28:56.004Z,83.7
2017-09-07T02:29:56.783Z,83.5
2017-09-07T02:30:57.691Z,83.7
2017-09-07T02:31:58.400Z,84.0
2017-09-07T02:32:59.198Z,83.8
2017-09-07T02:33:59.903Z,84.2
2017-09-07T02:35:00.712Z,83.5
2017-09-07T02:36:01.534Z,83.0
2017-09-07T02:37:02.290Z,83.2
2017-09-07T02:38:02.960Z,84.2
2017-09-07T02:39:03.666Z,84.4
2017-09-07T02:40:04.392Z,84.3
2017-09-07T02:41:05.177Z,83.8
2017-09-07T02:42:05.920Z,83.4
2017-09-07T02:43:06.684Z,83.2
2017-09-07T02:44:07.414Z,81.9
2017-09-07T02:45:08.204Z,81.3
2017-09-07T02:46:08.878Z,82.3
2017-09-07T02:47:09.593Z,83.1
2017-09-07T02:48:10.365Z,83.3
2017-09-07T02:49:11.098Z,83.5
2017-09-07T02:50:11.920Z,82.7
2017-09-07T02:51:12.636Z,82.5
2017-09-07T02:52:13.383Z,82.5
2017-09-07T02:53:14.150Z,82.5
2017-09-07T02:54:14.931Z,83.1
2017-09-07T02:55:15.688Z,83.5
2017-09-07T02:56:16.443Z,82.7
2017-09-07T02:57:17.207Z,81.2
2017-09-07T02:58:17.957Z,81.4
2017-09-07T02:59:18.730Z,79.5
2017-09-07T03:00:19.450Z,79.3
2017-09-07T03:01:20.171Z,79.5
2017-09-07T03:02:21.013Z,79.1
2017-09-07T03:03:21.831Z,80.1
2017-09-07T03:04:22.591Z,79.8
2017-09-07T03:05:23.445Z,79.2
2017-09-07T03:06:24.260Z,80.1
2017-09-07T03:07:24.966Z,80.6
2017-09-07T03:08:25.735Z,81.2
2017-09-07T03:09:26.520Z,79.7
2017-09-07T03:10:27.307Z,80.2
2017-09-07T03:11:28.043Z,81.4
2017-09-07T03:12:28.816Z,79.3
2017-09-07T03:13:29.673Z,80.9
2017-09-07T03:14:30.403Z,81.3
2017-09-07T03:15:31.534Z,82.0
2017-09-07T03:16:32.239Z,81.1
2017-09-07T03:17:33.122Z,81.8
2017-09-07T03:18:33.871Z,82.5
2017-09-07T03:19:34.613Z,82.5
2017-09-07T03:20:35.513Z,82.5
2017-09-07T03:21:36.171Z,80.8
2017-09-07T03:22:37.045Z,82.6
2017-09-07T03:23:37.760Z,82.4
2017-09-07T03:24:38.448Z,82.4
2017-09-07T03:25:39.207Z,81.0
2017-09-07T03:26:39.975Z,80.0
2017-09-07T03:27:40.679Z,80.2
2017-09-07T03:28:41.414Z,81.3
2017-09-07T03:29:42.500Z,82.5
2017-09-07T03:30:43.640Z,82.3
2017-09-07T03:31:44.352Z,82.2
2017-09-07T03:32:45.036Z,79.6
2017-09-07T03:33:45.723Z,79.5
2017-09-07T03:34:46.454Z,80.4
2017-09-07T03:35:47.244Z,81.9
2017-09-07T03:36:48.057Z,80.7
2017-09-07T03:37:48.787Z,79.5
2017-09-07T03:38:49.664Z,79.7
2017-09-07T03:39:50.480Z,80.5
2017-09-07T03:40:51.239Z,81.7
2017-09-07T03:41:51.989Z,81.8
2017-09-07T03:42:52.695Z,82.0
2017-09-07T03:43:53.533Z,81.3
2017-09-07T03:44:54.308Z,82.4
2017-09-07T03:45:55.113Z,82.3
2017-09-07T03:46:55.926Z,82.5
2017-09-07T03:47:56.667Z,81.9
2017-09-07T03:48:57.471Z,81.3
2017-09-07T03:49:58.247Z,81.7
2017-09-07T03:50:59.074Z,82.1
2017-09-07T03:51:59.793Z,81.3
2017-09-07T03:53:00.516Z,81.4
2017-09-07T03:54:01.250Z,81.5
2017-09-07T03:55:02.039Z,81.9
2017-09-07T03:56:02.775Z,81.6
2017-09-07T03:57:03.568Z,82.0
2017-09-07T03:58:04.344Z,81.2
2017-09-07T03:59:05.104Z,80.4
2017-09-07T04:00:05.853Z,80.6
2017-09-07T04:01:06.552Z,81.2
2017-09-07T04:02:07.273Z,81.2
2017-09-07T04:03:07.999Z,82.4
2017-09-07T04:04:08.829Z,82.5
2017-09-07T04:05:09.890Z,82.5
2017-09-07T04:06:10.642Z,82.5
2017-09-07T04:07:11.359Z,82.4
2017-09-07T04:08:12.077Z,82.5
2017-09-07T04:09:12.896Z,82.3
2017-09-07T04:10:13.640Z,82.5
2017-09-07T04:11:14.371Z,82.5
2017-09-07T04:12:15.120Z,82.6
2017-09-07T04:13:15.905Z,81.9
2017-09-07T04:14:16.618Z,82.7
2017-09-07T04:15:17.324Z,82.5
2017-09-07T04:16:18.055Z,82.4
2017-09-07T04:17:18.816Z,82.7
2017-09-07T04:18:19.595Z,83.2
2017-09-07T04:19:20.317Z,82.4
2017-09-07T04:20:21.075Z,82.8
2017-09-07T04:21:21.820Z,82.5
2017-09-07T04:22:22.550Z,82.0
2017-09-07T04:23:23.306Z,79.2
2017-09-07T04:24:24.114Z,79.8
2017-09-07T04:25:24.853Z,80.9
2017-09-07T04:26:25.650Z,81.9
2017-09-07T04:27:26.443Z,82.3
2017-09-07T04:28:27.339Z,82.6
2017-09-07T04:29:28.014Z,82.6
2017-09-07T04:30:28.818Z,83.1
2017-09-07T04:31:29.603Z,82.4
2017-09-07T04:32:30.313Z,82.5
2017-09-07T04:33:31.074Z,81.7
2017-09-07T04:34:31.774Z,81.9
2017-09-07T04:35:32.535Z,81.2
2017-09-07T04:36:33.234Z,80.8
2017-09-07T04:37:33.993Z,80.7
2017-09-07T04:38:34.723Z,80.6
2017-09-07T04:39:35.510Z,81.0
2017-09-07T04:40:36.194Z,80.1
2017-09-07T04:41:36.923Z,80.3
2017-09-07T04:42:37.724Z,81.0
2017-09-07T04:43:38.801Z,80.7
2017-09-07T04:44:39.447Z,79.8
2017-09-07T04:45:40.164Z,79.2
2017-09-07T04:46:40.836Z,80.0
2017-09-07T04:47:41.557Z,79.7
2017-09-07T04:48:42.276Z,78.4
2017-09-07T04:49:43.083Z,80.9
2017-09-07T04:50:43.843Z,81.2
2017-09-07T04:51:44.515Z,81.5
2017-09-07T04:52:45.257Z,81.9
2017-09-07T04:53:45.992Z,81.9
2017-09-07T04:54:46.784Z,81.8
2017-09-07T04:55:47.561Z,81.4
2017-09-07T04:56:48.385Z,80.2
2017-09-07T04:57:49.069Z,77.4
2017-09-07T04:58:49.832Z,76.8
2017-09-07T04:59:50.698Z,77.5
2017-09-07T05:00:52.216Z,78.1
2017-09-07T05:01:53.206Z,78.5
2017-09-07T05:02:54.073Z,77.8
2017-09-07T05:03:54.839Z,77.6
2017-09-07T05:04:55.556Z,77.5
2017-09-07T05:05:56.349Z,77.6
2017-09-07T05:06:57.199Z,78.1
2017-09-07T05:07:57.968Z,77.9
2017-09-07T05:08:58.681Z,77.9
2017-09-07T05:09:59.419Z,78.2
2017-09-07T05:11:00.322Z,77.8
2017-09-07T05:12:01.252Z,78.8
2017-09-07T05:13:02.046Z,78.4
2017-09-07T05:14:02.707Z,79.5
2017-09-07T05:15:03.869Z,79.3
2017-09-07T05:16:04.670Z,79.4
2017-09-07T05:17:05.423Z,79.0
2017-09-07T05:18:06.202Z,79.7
2017-09-07T05:19:06.918Z,80.2
2017-09-07T05:21:09.955Z,80.8
2017-09-07T05:22:10.684Z,80.7
2017-09-07T05:23:11.413Z,81.3
2017-09-07T05:24:12.267Z,80.1
2017-09-07T05:25:13.117Z,79.9
2017-09-07T05:26:13.836Z,80.2
2017-09-07T05:27:14.566Z,79.7
2017-09-07T05:28:15.361Z,79.8
2017-09-07T05:29:16.080Z,78.6
2017-09-07T05:30:16.804Z,79.8
2017-09-07T05:31:17.512Z,80.6
2017-09-07T05:32:18.238Z,80.1
2017-09-07T05:33:18.966Z,80.8
2017-09-07T05:34:19.691Z,79.2
2017-09-07T05:35:20.556Z,77.2
2017-09-07T05:36:21.298Z,77.9
2017-09-07T05:37:22.015Z,80.6
2017-09-07T05:38:22.731Z,81.3
2017-09-07T05:39:23.445Z,80.3
2017-09-07T05:40:24.710Z,81.2
2017-09-07T05:41:25.475Z,76.7
2017-09-07T05:42:27.063Z,76.5
2017-09-07T05:43:27.786Z,77.6
2017-09-07T05:44:28.977Z,79.7
2017-09-07T05:45:29.633Z,80.2
2017-09-07T05:46:30.374Z,77.4
2017-09-07T05:47:31.094Z,79.1
2017-09-07T05:48:31.837Z,79.3
2017-09-07T05:49:32.621Z,79.7
2017-09-07T05:50:33.540Z,80.0
2017-09-07T05:51:34.279Z,79.4
2017-09-07T05:52:34.966Z,79.0
2017-09-07T05:53:35.711Z,77.1
2017-09-07T05:54:36.424Z,79.2
2017-09-07T05:55:37.293Z,80.1
2017-09-07T05:56:37.968Z,78.8
2017-09-07T05:57:38.669Z,77.1
2017-09-07T05:58:39.425Z,78.4
2017-09-07T05:59:40.179Z,79.7
2017-09-07T06:00:40.985Z,74.3
2017-09-07T06:01:41.668Z,73.8
2017-09-07T06:02:42.438Z,76.2
2017-09-07T06:03:43.155Z,78.0
2017-09-07T06:04:43.963Z,79.2
2017-09-07T06:05:44.644Z,79.6
2017-09-07T06:06:45.395Z,78.1
2017-09-07T06:07:46.137Z,79.4
2017-09-07T06:08:46.830Z,80.2
2017-09-07T06:09:47.675Z,81.3
2017-09-07T06:10:48.346Z,79.2
2017-09-07T06:11:49.103Z,79.9
2017-09-07T06:12:49.782Z,80.8
2017-09-07T06:13:51.194Z,80.6
2017-09-07T06:14:51.852Z,77.3
2017-09-07T06:15:52.588Z,77.7
2017-09-07T06:16:53.297Z,78.0
2017-09-07T06:17:54.020Z,79.5
2017-09-07T06:18:54.769Z,79.7
2017-09-07T06:19:55.483Z,79.7
2017-09-07T06:20:56.245Z,78.0
2017-09-07T06:21:57.095Z,77.3
2017-09-07T06:22:57.872Z,76.3
2017-09-07T06:23:58.643Z,76.7
2017-09-07T06:24:59.399Z,80.3
2017-09-07T06:26:00.136Z,79.1
2017-09-07T06:27:00.906Z,81.1
2017-09-07T06:28:01.610Z,81.3
2017-09-07T06:29:02.337Z,81.1
2017-09-07T06:30:03.059Z,78.2
2017-09-07T06:31:03.844Z,79.9
2017-09-07T06:32:04.714Z,79.6
2017-09-07T06:33:05.451Z,76.2
2017-09-07T06:34:06.133Z,79.3
2017-09-07T06:35:06.891Z,79.6
2017-09-07T06:36:07.605Z,80.0
2017-09-07T06:37:08.378Z,76.9
2017-09-07T06:38:09.213Z,78.1
2017-09-07T06:39:09.899Z,79.8
2017-09-07T06:40:10.740Z,80.0
2017-09-07T06:41:11.458Z,80.7
2017-09-07T06:42:12.225Z,80.8
2017-09-07T06:43:12.921Z,80.2
2017-09-07T06:44:13.625Z,79.2
2017-09-07T06:45:14.364Z,78.4
2017-09-07T06:46:15.172Z,81.3
2017-09-07T06:47:16.038Z,78.7
2017-09-07T06:48:16.841Z,79.7
2017-09-07T06:49:17.508Z,80.0
2017-09-07T06:50:18.315Z,80.1
2017-09-07T06:51:19.157Z,77.6
2017-09-07T06:52:19.831Z,79.0
2017-09-07T06:53:20.576Z,78.4
2017-09-07T06:54:21.393Z,79.7
2017-09-07T06:55:22.228Z,80.9
2017-09-07T06:56:22.946Z,80.9
2017-09-07T06:57:23.624Z,80.5
2017-09-07T06:58:24.399Z,78.0
2017-09-07T06:59:25.109Z,77.1
2017-09-07T07:00:25.919Z,79.3
2017-09-07T07:01:26.593Z,80.0
2017-09-07T07:02:27.370Z,78.9
2017-09-07T07:03:28.112Z,78.3
2017-09-07T07:04:28.799Z,78.9
2017-09-07T07:05:29.615Z,78.4
2017-09-07T07:06:30.373Z,78.7
2017-09-07T07:07:31.136Z,78.0
2017-09-07T07:08:31.819Z,75.9
2017-09-07T07:09:32.560Z,76.5
2017-09-07T07:10:33.354Z,78.1
2017-09-07T07:11:34.196Z,77.6
2017-09-07T07:12:34.981Z,77.1
2017-09-07T07:13:35.635Z,75.2
2017-09-07T07:14:36.367Z,76.5
2017-09-07T07:15:37.160Z,77.3
2017-09-07T07:16:37.954Z,77.4
2017-09-07T07:17:38.699Z,75.6
2017-09-07T07:18:39.394Z,77.0
2017-09-07T07:19:40.173Z,75.2
2017-09-07T07:20:40.932Z,76.1
2017-09-07T07:21:41.642Z,76.3
2017-09-07T07:22:42.335Z,76.3
2017-09-07T07:23:43.088Z,77.1
2017-09-07T07:24:43.908Z,76.5
2017-09-07T07:25:44.707Z,76.6
2017-09-07T07:26:45.353Z,75.9
2017-09-07T07:27:46.069Z,77.1
2017-09-07T07:28:46.786Z,76.3
2017-09-07T07:29:47.518Z,77.6
2017-09-07T07:30:48.440Z,76.7
2017-09-07T07:31:49.203Z,75.3
2017-09-07T07:32:49.988Z,75.6
2017-09-07T07:33:50.746Z,77.2
2017-09-07T07:34:51.496Z,75.0
2017-09-07T07:35:52.254Z,75.4
2017-09-07T07:36:52.919Z,75.5
2017-09-07T07:37:53.617Z,74.5
2017-09-07T07:38:54.363Z,74.8
2017-09-07T07:39:55.203Z,74.7
2017-09-07T07:40:55.906Z,71.1
2017-09-07T07:41:56.691Z,70.3
2017-09-07T07:42:57.449Z,72.3
2017-09-07T07:43:58.271Z,72.4
2017-09-07T07:44:59.007Z,73.6
2017-09-07T07:45:59.724Z,73.9
2017-09-07T07:47:00.514Z,74.2
2017-09-07T07:48:01.675Z,70.2
2017-09-07T07:49:02.437Z,70.2
2017-09-07T07:50:03.215Z,71.2
2017-09-07T07:51:03.954Z,71.3
2017-09-07T07:52:04.665Z,70.7
2017-09-07T07:53:05.495Z,70.0
2017-09-07T07:54:06.366Z,71.6
2017-09-07T07:55:07.103Z,71.7
2017-09-07T07:56:07.957Z,71.4
2017-09-07T07:57:08.710Z,69.7
2017-09-07T07:58:09.401Z,70.6
2017-09-07T07:59:10.150Z,70.4
2017-09-07T08:00:10.877Z,71.7
2017-09-07T08:01:12.020Z,72.0
2017-09-07T08:02:12.752Z,71.5
2017-09-07T08:03:13.564Z,72.3
2017-09-07T08:04:14.545Z,71.0
2017-09-07T08:05:15.266Z,70.2
2017-09-07T08:06:17.017Z,72.1
2017-09-07T08:07:17.733Z,69.1
2017-09-07T08:08:18.551Z,70.0
2017-09-07T08:09:19.308Z,71.3
2017-09-07T08:10:20.160Z,73.5
2017-09-07T08:11:20.991Z,70.2
2017-09-07T08:12:21.721Z,72.0
2017-09-07T08:13:22.519Z,70.9
2017-09-07T08:14:23.311Z,72.1
2017-09-07T08:15:24.060Z,71.4
2017-09-07T08:16:24.753Z,72.7
2017-09-07T08:17:25.540Z,69.9
2017-09-07T08:18:26.269Z,69.6
2017-09-07T08:19:27.024Z,72.6
2017-09-07T08:20:27.759Z,73.1
2017-09-07T08:21:28.429Z,69.9
2017-09-07T08:22:29.213Z,71.3
2017-09-07T08:23:29.950Z,74.3
2017-09-07T08:24:30.709Z,71.7
2017-09-07T08:25:31.480Z,70.9
2017-09-07T08:26:32.214Z,70.8
2017-09-07T08:27:33.045Z,72.5
2017-09-07T08:28:33.784Z,70.6
2017-09-07T08:29:34.491Z,71.9
2017-09-07T08:30:35.539Z,71.3
2017-09-07T08:31:36.321Z,69.7
2017-09-07T08:32:36.995Z,71.4
2017-09-07T08:33:37.757Z,72.3
2017-09-07T08:34:38.466Z,72.1
2017-09-07T08:35:39.180Z,73.4
2017-09-07T08:36:39.922Z,73.2
2017-09-07T08:37:40.606Z,70.8
2017-09-07T08:38:41.622Z,72.1
2017-09-07T08:39:42.593Z,70.9
2017-09-07T08:40:43.307Z,71.9
2017-09-07T08:41:44.039Z,72.2
2017-09-07T08:42:44.791Z,70.8
2017-09-07T08:43:45.526Z,69.7
2017-09-07T08:44:46.388Z,71.3
2017-09-07T08:45:47.164Z,72.7
2017-09-07T08:46:48.443Z,72.7
2017-09-07T08:47:49.686Z,72.2
2017-09-07T08:48:50.511Z,72.5
2017-09-07T08:49:51.309Z,74.5
2017-09-07T08:50:52.092Z,71.3
2017-09-07T08:51:52.924Z,70.9
2017-09-07T08:52:53.649Z,70.3
2017-09-07T08:53:54.406Z,71.9
2017-09-07T08:54:55.372Z,70.9
2017-09-07T08:55:56.093Z,72.3
2017-09-07T08:56:56.815Z,71.4
2017-09-07T08:57:57.563Z,71.0
2017-09-07T08:58:58.483Z,70.1
2017-09-07T08:59:59.318Z,73.1
2017-09-07T09:02:03.190Z,73.4
2017-09-07T09:03:03.840Z,74.6
2017-09-07T09:04:04.544Z,73.4
2017-09-07T09:05:05.732Z,73.2
2017-09-07T09:06:06.408Z,70.6
2017-09-07T09:07:07.157Z,70.7
2017-09-07T09:08:07.976Z,73.3
2017-09-07T09:09:08.782Z,71.5
2017-09-07T09:10:09.524Z,70.0
2017-09-07T09:11:10.254Z,70.4
2017-09-07T09:12:10.965Z,70.7
2017-09-07T09:13:11.804Z,69.6
2017-09-07T09:14:12.455Z,69.0
2017-09-07T09:15:13.310Z,72.7
2017-09-07T09:16:14.025Z,69.6
2017-09-07T09:17:14.794Z,69.0
2017-09-07T09:18:15.512Z,66.4
2017-09-07T09:19:16.283Z,66.2
2017-09-07T09:20:16.974Z,67.2
2017-09-07T09:21:17.768Z,69.6
2017-09-07T09:22:18.479Z,66.6
2017-09-07T09:23:19.213Z,69.4
2017-09-07T09:24:19.902Z,69.6
2017-09-07T09:25:20.622Z,70.5
2017-09-07T09:26:21.402Z,70.0
2017-09-07T09:27:22.171Z,71.6
2017-09-07T09:28:22.937Z,69.8
2017-09-07T09:29:23.668Z,70.0
2017-09-07T09:30:24.394Z,68.1
2017-09-07T09:31:25.097Z,67.7
2017-09-07T09:32:25.841Z,69.0
2017-09-07T09:33:26.556Z,69.6
2017-09-07T09:34:27.714Z,71.3
2017-09-07T09:35:28.475Z,71.5
2017-09-07T09:36:29.144Z,73.4
2017-09-07T09:37:29.906Z,73.4
2017-09-07T09:38:30.717Z,72.8
2017-09-07T09:39:31.430Z,70.1
2017-09-07T09:40:32.200Z,69.2
2017-09-07T09:41:32.929Z,67.1
2017-09-07T09:42:33.780Z,69.0
2017-09-07T09:43:34.555Z,68.6
2017-09-07T09:44:35.326Z,67.1
2017-09-07T09:45:36.104Z,68.1
2017-09-07T09:46:36.866Z,68.0
2017-09-07T09:47:37.609Z,67.4
2017-09-07T09:48:38.857Z,67.7
2017-09-07T09:49:39.558Z,67.5
2017-09-07T09:50:40.378Z,67.1
2017-09-07T09:51:41.136Z,66.7
2017-09-07T09:52:41.838Z,66.9
2017-09-07T09:53:42.785Z,69.9
2017-09-07T09:54:43.586Z,68.1
2017-09-07T09:55:44.325Z,69.0
2017-09-07T09:56:45.146Z,67.2
2017-09-07T09:57:45.949Z,67.4
2017-09-07T09:58:46.651Z,67.4
2017-09-07T09:59:47.533Z,67.6
2017-09-07T10:00:48.956Z,67.5
2017-09-07T10:01:49.600Z,67.3
2017-09-07T10:02:50.443Z,66.6
2017-09-07T10:03:51.150Z,68.3
2017-09-07T10:04:51.897Z,69.9
2017-09-07T10:05:52.856Z,70.2
2017-09-07T10:06:53.702Z,67.7
2017-09-07T10:07:54.464Z,66.9
2017-09-07T10:08:55.644Z,67.3
2017-09-07T10:09:56.373Z,67.0
2017-09-07T10:10:57.126Z,68.1
2017-09-07T10:11:58.160Z,69.8
2017-09-07T10:13:00.451Z,69.6
2017-09-07T10:14:00.570Z,69.1
2017-09-07T10:15:01.312Z,65.9
2017-09-07T10:16:03.056Z,67.1
2017-09-07T10:17:03.792Z,64.2
2017-09-07T10:18:04.563Z,63.8
2017-09-07T10:19:06.251Z,65.5
2017-09-07T10:20:07.267Z,64.1
2017-09-07T10:21:08.325Z,68.9
2017-09-07T10:22:09.195Z,65.5
2017-09-07T10:23:09.913Z,65.5
2017-09-07T10:24:10.620Z,65.3
2017-09-07T10:25:11.333Z,63.1
2017-09-07T10:26:12.122Z,65.6
2017-09-07T10:27:12.814Z,64.1
2017-09-07T10:28:13.628Z,66.1
2017-09-07T10:29:14.391Z,64.7
2017-09-07T10:30:15.242Z,63.3
2017-09-07T10:31:16.317Z,66.1
2017-09-07T10:32:17.082Z,69.1
2017-09-07T10:33:17.902Z,67.9
2017-09-07T10:34:18.580Z,68.8
2017-09-07T10:35:19.359Z,67.4
2017-09-07T10:36:20.142Z,67.0
2017-09-07T10:37:20.862Z,67.2
2017-09-07T10:38:21.683Z,67.7
2017-09-07T10:39:22.644Z,66.7
2017-09-07T10:40:23.476Z,64.6
2017-09-07T10:41:24.192Z,64.3
2017-09-07T10:42:24.990Z,67.4
2017-09-07T10:43:25.738Z,65.5
2017-09-07T10:44:26.430Z,65.4
2017-09-07T10:45:27.604Z,64.8
2017-09-07T10:46:28.476Z,66.3
2017-09-07T10:47:29.266Z,66.1
2017-09-07T10:48:30.002Z,65.8
2017-09-07T10:49:30.796Z,67.3
2017-09-07T10:50:32.335Z,64.2
2017-09-07T10:51:33.045Z,66.1
2017-09-07T10:52:33.880Z,65.4
2017-09-07T10:53:34.668Z,65.5
2017-09-07T10:54:35.507Z,63.5
2017-09-07T10:55:36.225Z,64.2
2017-09-07T10:56:36.959Z,64.8
2017-09-07T10:57:37.715Z,62.2
2017-09-07T10:58:38.563Z,61.2
2017-09-07T10:59:39.232Z,61.0
2017-09-07T11:00:39.937Z,59.7
2017-09-07T11:01:40.626Z,61.5
2017-09-07T11:02:41.364Z,62.5
2017-09-07T11:03:42.099Z,65.1
2017-09-07T11:04:42.824Z,61.5
2017-09-07T11:05:43.610Z,60.6
2017-09-07T11:06:44.364Z,62.3
2017-09-07T11:07:45.191Z,62.7
2017-09-07T11:08:45.910Z,63.0
2017-09-07T11:09:46.615Z,65.0
2017-09-07T11:10:47.360Z,66.7
2017-09-07T11:11:48.193Z,70.8
2017-09-07T11:12:48.912Z,70.3
2017-09-07T11:13:50.269Z,69.9
2017-09-07T11:14:50.968Z,69.5
2017-09-07T11:15:51.733Z,69.7
2017-09-07T11:16:52.436Z,66.1
2017-09-07T11:17:53.214Z,66.3
2017-09-07T11:18:53.882Z,67.7
2017-09-07T11:19:55.012Z,64.9
2017-09-07T11:20:55.741Z,66.9
2017-09-07T11:21:56.543Z,69.0
2017-09-07T11:22:57.253Z,68.6
2017-09-07T11:23:57.977Z,67.7
2017-09-07T11:24:58.701Z,67.4
2017-09-07T11:25:59.447Z,65.4
2017-09-07T11:27:00.351Z,65.1
2017-09-07T11:28:01.043Z,67.8
2017-09-07T11:29:01.817Z,62.1
2017-09-07T11:30:02.642Z,62.9
2017-09-07T11:31:03.296Z,62.1
2017-09-07T11:32:04.067Z,64.5
2017-09-07T11:33:04.926Z,65.8
2017-09-07T11:34:05.639Z,66.6
2017-09-07T11:35:06.449Z,64.7
2017-09-07T11:36:07.164Z,66.1
2017-09-07T11:37:07.898Z,61.3
2017-09-07T11:38:08.696Z,62.4
2017-09-07T11:39:09.971Z,63.9
2017-09-07T11:40:10.739Z,64.7
2017-09-07T11:41:11.504Z,61.7
2017-09-07T11:42:12.174Z,60.9
2017-09-07T11:43:12.959Z,61.8
2017-09-07T11:44:14.412Z,64.1
2017-09-07T11:45:15.183Z,64.8
2017-09-07T11:46:15.929Z,65.2
2017-09-07T11:47:16.822Z,66.2
2017-09-07T11:48:18.003Z,65.0
2017-09-07T11:49:18.655Z,62.2
2017-09-07T11:50:19.483Z,61.1
2017-09-07T11:51:20.230Z,60.8
2017-09-07T11:52:20.961Z,60.5
2017-09-07T11:53:21.720Z,61.9
2017-09-07T11:54:22.453Z,63.4
2017-09-07T11:55:23.168Z,64.0
2017-09-07T11:56:23.878Z,63.1
2017-09-07T11:57:24.655Z,63.3
2017-09-07T11:58:25.475Z,63.0
2017-09-07T11:59:26.381Z,64.7
2017-09-07T12:00:27.112Z,65.3
2017-09-07T12:01:27.824Z,66.1
2017-09-07T12:02:28.497Z,65.4
2017-09-07T12:03:29.215Z,66.0
2017-09-07T12:04:30.017Z,65.8
2017-09-07T12:05:30.806Z,65.0
2017-09-07T12:06:31.532Z,64.4
2017-09-07T12:07:32.329Z,66.0
2017-09-07T12:08:33.073Z,61.4
2017-09-07T12:09:33.709Z,60.8
2017-09-07T12:10:34.530Z,62.1
2017-09-07T12:11:35.247Z,62.2
2017-09-07T12:12:35.982Z,62.7
2017-09-07T12:13:36.705Z,64.7
2017-09-07T12:14:37.450Z,66.3
2017-09-07T12:15:38.225Z,62.9
2017-09-07T12:16:38.945Z,63.4
2017-09-07T12:17:39.891Z,62.5
2017-09-07T12:18:40.547Z,57.4
2017-09-07T12:19:41.306Z,61.5
2017-09-07T12:20:42.036Z,58.1
2017-09-07T12:21:42.827Z,60.2
2017-09-07T12:22:43.630Z,58.8
2017-09-07T12:23:44.354Z,57.0
2017-09-07T12:24:45.079Z,56.7
2017-09-07T12:25:45.869Z,57.6
2017-09-07T12:26:46.624Z,58.1
2017-09-07T12:27:47.331Z,58.2
2017-09-07T12:28:48.091Z,58.4
2017-09-07T12:29:48.780Z,58.5
2017-09-07T12:30:49.666Z,59.0
2017-09-07T12:31:50.401Z,59.7
2017-09-07T12:32:51.148Z,58.1
2017-09-07T12:33:51.931Z,55.4
2017-09-07T12:34:52.633Z,56.1
2017-09-07T12:35:53.376Z,56.7
2017-09-07T12:36:54.093Z,56.9
2017-09-07T12:37:54.844Z,56.7
2017-09-07T12:38:55.600Z,55.7
2017-09-07T12:39:56.331Z,55.0
2017-09-07T12:40:57.037Z,56.7
2017-09-07T12:41:57.932Z,56.9
2017-09-07T12:42:58.625Z,57.5
2017-09-07T12:43:59.309Z,56.6
2017-09-07T12:45:00.075Z,54.7
2017-09-07T12:46:00.828Z,55.3
2017-09-07T12:47:01.531Z,57.6
2017-09-07T12:48:02.321Z,57.4
2017-09-07T12:49:03.063Z,55.5
2017-09-07T12:50:03.872Z,56.5
2017-09-07T12:51:04.561Z,57.4
2017-09-07T12:52:05.353Z,56.0
2017-09-07T12:53:06.028Z,57.4
2017-09-07T12:54:06.778Z,58.4
2017-09-07T12:55:07.497Z,55.8
2017-09-07T12:56:08.294Z,57.6
2017-09-07T12:57:09.006Z,57.9
2017-09-07T12:58:09.756Z,55.3
2017-09-07T12:59:10.550Z,56.8
2017-09-07T13:00:11.402Z,55.8
2017-09-07T13:01:12.264Z,57.5
2017-09-07T13:02:12.971Z,55.4
2017-09-07T13:03:13.713Z,55.2
2017-09-07T13:04:14.407Z,57.4
2017-09-07T13:05:15.150Z,58.9
2017-09-07T13:06:16.084Z,57.0
2017-09-07T13:07:16.783Z,54.1
2017-09-07T13:08:17.504Z,55.0
2017-09-07T13:09:18.283Z,53.7
2017-09-07T13:10:18.994Z,55.9
2017-09-07T13:11:19.712Z,55.1
2017-09-07T13:12:20.426Z,56.6
2017-09-07T13:13:21.179Z,57.5
2017-09-07T13:14:21.883Z,54.9
2017-09-07T13:15:22.908Z,53.9
2017-09-07T13:16:23.564Z,55.4
2017-09-07T13:17:24.331Z,51.5
2017-09-07T13:18:25.068Z,54.0
2017-09-07T13:19:25.829Z,54.5
2017-09-07T13:20:26.592Z,54.0
2017-09-07T13:21:27.401Z,54.1
2017-09-07T13:22:28.105Z,54.2
2017-09-07T13:23:28.869Z,51.9
2017-09-07T13:24:29.544Z,54.0
2017-09-07T13:25:30.305Z,54.4
2017-09-07T13:26:31.168Z,54.4
2017-09-07T13:27:31.899Z,53.6
2017-09-07T13:28:32.727Z,54.4
2017-09-07T13:29:33.434Z,54.5
2017-09-07T13:30:34.535Z,55.5
2017-09-07T13:31:35.612Z,52.1
2017-09-07T13:32:36.312Z,54.2